sensor_id;sensor_type;location;lat;lon;timestamp;pressure;altitude;pressure_sealevel;temperature;humidity
63907;BME280;50075;49.484;11.238;2022-08-04T00:00:23;97810.97;;;25.21;100.00
63907;BME280;50075;49.484;11.238;2022-08-04T00:06:17;97798.75;;;24.76;100.00
63907;BME280;50075;49.484;11.238;2022-08-04T00:08:53;97797.78;;;25.12;100.00
63907;BME280;50075;49.484;11.238;2022-08-04T00:11:22;97804.00;;;25.20;100.00
63907;BME280;50075;49.484;11.238;2022-08-04T00:14:01;97803.25;;;25.02;100.00
63907;BME280;50075;49.484;11.238;2022-08-04T00:16:29;97804.44;;;25.16;100.00
63907;BME280;50075;49.484;11.238;2022-08-04T00:19:02;97800.84;;;24.91;100.00
63907;BME280;50075;49.484;11.238;2022-08-04T00:21:30;97800.44;;;25.12;100.00
63907;BME280;50075;49.484;11.238;2022-08-04T00:24:00;97808.19;;;24.89;100.00
63907;BME280;50075;49.484;11.238;2022-08-04T00:26:26;97811.75;;;25.06;100.00
63907;BME280;50075;49.484;11.238;2022-08-04T00:28:51;97799.44;;;24.78;100.00
63907;BME280;50075;49.484;11.238;2022-08-04T00:31:17;97801.97;;;24.36;100.00
63907;BME280;50075;49.484;11.238;2022-08-04T00:33:44;97803.69;;;24.63;100.00
63907;BME280;50075;49.484;11.238;2022-08-04T00:36:11;97806.16;;;24.65;100.00
63907;BME280;50075;49.484;11.238;2022-08-04T00:38:39;97807.97;;;24.56;100.00
63907;BME280;50075;49.484;11.238;2022-08-04T00:43:32;97812.66;;;24.62;100.00
63907;BME280;50075;49.484;11.238;2022-08-04T01:00:19;97809.81;;;24.37;100.00
63907;BME280;50075;49.484;11.238;2022-08-04T01:07:59;97810.25;;;24.77;100.00
63907;BME280;50075;49.484;11.238;2022-08-04T01:10:47;97809.56;;;24.49;100.00
63907;BME280;50075;49.484;11.238;2022-08-04T01:13:49;97808.69;;;24.66;100.00
63907;BME280;50075;49.484;11.238;2022-08-04T01:16:22;97809.19;;;24.43;100.00
63907;BME280;50075;49.484;11.238;2022-08-04T01:18:59;97809.81;;;24.37;100.00
63907;BME280;50075;49.484;11.238;2022-08-04T01:29:10;97801.81;;;23.83;100.00
63907;BME280;50075;49.484;11.238;2022-08-04T01:34:34;97808.88;;;23.75;100.00
63907;BME280;50075;49.484;11.238;2022-08-04T01:37:07;97810.09;;;23.62;100.00
63907;BME280;50075;49.484;11.238;2022-08-04T01:39:49;97808.38;;;23.89;100.00
63907;BME280;50075;49.484;11.238;2022-08-04T01:42:17;97815.91;;;23.94;100.00
63907;BME280;50075;49.484;11.238;2022-08-04T01:44:46;97817.13;;;23.81;100.00
63907;BME280;50075;49.484;11.238;2022-08-04T01:47:14;97814.00;;;24.04;100.00
63907;BME280;50075;49.484;11.238;2022-08-04T01:49:42;97814.22;;;23.75;100.00
63907;BME280;50075;49.484;11.238;2022-08-04T01:52:09;97811.22;;;23.32;100.00
63907;BME280;50075;49.484;11.238;2022-08-04T01:54:36;97820.75;;;23.35;100.00
63907;BME280;50075;49.484;11.238;2022-08-04T01:57:04;97823.00;;;23.29;100.00
63907;BME280;50075;49.484;11.238;2022-08-04T01:59:30;97819.53;;;23.47;100.00
63907;BME280;50075;49.484;11.238;2022-08-04T02:01:58;97819.03;;;23.61;100.00
63907;BME280;50075;49.484;11.238;2022-08-04T02:04:23;97819.06;;;23.34;100.00
63907;BME280;50075;49.484;11.238;2022-08-04T02:07:02;97817.03;;;23.91;100.00
63907;BME280;50075;49.484;11.238;2022-08-04T02:15:03;97821.09;;;23.95;100.00
63907;BME280;50075;49.484;11.238;2022-08-04T02:20:47;97816.94;;;23.00;100.00
63907;BME280;50075;49.484;11.238;2022-08-04T02:23:15;97821.59;;;22.98;100.00
63907;BME280;50075;49.484;11.238;2022-08-04T02:25:55;97822.31;;;23.27;100.00
63907;BME280;50075;49.484;11.238;2022-08-04T02:31:13;97812.66;;;22.89;100.00
63907;BME280;50075;49.484;11.238;2022-08-04T02:33:43;97812.59;;;23.08;100.00
63907;BME280;50075;49.484;11.238;2022-08-04T02:36:13;97804.53;;;22.90;100.00
63907;BME280;50075;49.484;11.238;2022-08-04T02:38:58;97810.47;;;23.12;100.00
63907;BME280;50075;49.484;11.238;2022-08-04T02:41:26;97814.34;;;22.80;100.00
63907;BME280;50075;49.484;11.238;2022-08-04T02:43:56;97808.75;;;22.83;100.00
63907;BME280;50075;49.484;11.238;2022-08-04T02:46:23;97807.31;;;23.26;100.00
63907;BME280;50075;49.484;11.238;2022-08-04T02:48:50;97805.19;;;23.40;100.00
63907;BME280;50075;49.484;11.238;2022-08-04T02:51:22;97802.00;;;22.89;100.00
63907;BME280;50075;49.484;11.238;2022-08-04T02:53:53;97802.84;;;22.89;100.00
63907;BME280;50075;49.484;11.238;2022-08-04T02:56:20;97804.91;;;22.58;100.00
63907;BME280;50075;49.484;11.238;2022-08-04T02:58:50;97800.63;;;22.85;100.00
63907;BME280;50075;49.484;11.238;2022-08-04T03:01:16;97800.38;;;22.78;100.00
63907;BME280;50075;49.484;11.238;2022-08-04T03:03:55;97808.75;;;22.83;100.00
63907;BME280;50075;49.484;11.238;2022-08-04T03:25:37;97812.44;;;22.63;100.00
63907;BME280;50075;49.484;11.238;2022-08-04T03:37:24;97809.53;;;23.03;100.00
63907;BME280;50075;49.484;11.238;2022-08-04T03:40:23;97811.88;;;22.69;100.00
63907;BME280;50075;49.484;11.238;2022-08-04T03:43:18;97816.34;;;23.16;100.00
63907;BME280;50075;49.484;11.238;2022-08-04T03:52:00;97806.81;;;22.76;100.00
63907;BME280;50075;49.484;11.238;2022-08-04T04:08:24;97808.34;;;23.25;100.00
63907;BME280;50075;49.484;11.238;2022-08-04T04:16:39;97816.47;;;23.70;100.00
63907;BME280;50075;49.484;11.238;2022-08-04T04:25:20;97808.66;;;23.40;100.00
63907;BME280;50075;49.484;11.238;2022-08-04T04:30:38;97802.81;;;23.37;100.00
63907;BME280;50075;49.484;11.238;2022-08-04T04:38:46;97802.97;;;23.81;100.00
63907;BME280;50075;49.484;11.238;2022-08-04T04:44:36;97801.00;;;23.83;100.00
63907;BME280;50075;49.484;11.238;2022-08-04T04:47:13;97805.84;;;24.41;100.00
63907;BME280;50075;49.484;11.238;2022-08-04T04:52:46;97815.34;;;24.62;97.65
63907;BME280;50075;49.484;11.238;2022-08-04T04:55:20;97811.97;;;24.86;96.28
63907;BME280;50075;49.484;11.238;2022-08-04T04:57:49;97816.84;;;24.91;94.50
63907;BME280;50075;49.484;11.238;2022-08-04T05:00:16;97818.16;;;24.42;98.92
63907;BME280;50075;49.484;11.238;2022-08-04T05:03:08;97821.25;;;25.00;91.72
63907;BME280;50075;49.484;11.238;2022-08-04T05:11:45;97816.78;;;26.02;84.60
63907;BME280;50075;49.484;11.238;2022-08-04T05:14:32;97823.28;;;25.41;86.46
63907;BME280;50075;49.484;11.238;2022-08-04T05:22:10;97831.00;;;26.03;82.58
63907;BME280;50075;49.484;11.238;2022-08-04T05:24:41;97819.19;;;25.71;83.62
63907;BME280;50075;49.484;11.238;2022-08-04T05:27:20;97827.16;;;26.22;81.59
63907;BME280;50075;49.484;11.238;2022-08-04T05:29:53;97823.88;;;27.08;72.44
63907;BME280;50075;49.484;11.238;2022-08-04T05:32:25;97829.09;;;27.02;71.02
63907;BME280;50075;49.484;11.238;2022-08-04T05:34:57;97828.53;;;27.15;71.35
63907;BME280;50075;49.484;11.238;2022-08-04T05:37:25;97824.50;;;27.35;68.84
63907;BME280;50075;49.484;11.238;2022-08-04T05:40:01;97827.97;;;26.80;69.20
63907;BME280;50075;49.484;11.238;2022-08-04T05:42:29;97831.84;;;27.33;69.59
63907;BME280;50075;49.484;11.238;2022-08-04T05:44:56;97834.59;;;27.87;64.56
63907;BME280;50075;49.484;11.238;2022-08-04T05:47:23;97821.03;;;27.58;64.72
63907;BME280;50075;49.484;11.238;2022-08-04T05:49:49;97823.66;;;28.67;57.26
63907;BME280;50075;49.484;11.238;2022-08-04T05:52:14;97821.78;;;28.06;58.86
63907;BME280;50075;49.484;11.238;2022-08-04T05:54:41;97819.38;;;31.19;49.89
63907;BME280;50075;49.484;11.238;2022-08-04T05:57:07;97822.09;;;31.74;46.65
63907;BME280;50075;49.484;11.238;2022-08-04T05:59:37;97826.13;;;34.54;41.71
63907;BME280;50075;49.484;11.238;2022-08-04T06:02:03;97821.41;;;35.85;38.19
63907;BME280;50075;49.484;11.238;2022-08-04T06:04:33;97818.91;;;37.79;34.60
63907;BME280;50075;49.484;11.238;2022-08-04T06:06:59;97824.44;;;35.77;35.35
63907;BME280;50075;49.484;11.238;2022-08-04T06:09:25;97820.50;;;38.38;33.08
63907;BME280;50075;49.484;11.238;2022-08-04T06:11:51;97822.56;;;39.21;31.89
63907;BME280;50075;49.484;11.238;2022-08-04T06:14:19;97813.72;;;40.61;30.14
63907;BME280;50075;49.484;11.238;2022-08-04T06:16:48;97816.41;;;40.56;30.22
63907;BME280;50075;49.484;11.238;2022-08-04T06:19:16;97819.25;;;41.09;29.54
63907;BME280;50075;49.484;11.238;2022-08-04T06:21:46;97815.94;;;41.02;29.11
63907;BME280;50075;49.484;11.238;2022-08-04T06:24:16;97815.56;;;41.31;28.69
63907;BME280;50075;49.484;11.238;2022-08-04T06:26:43;97804.81;;;41.92;27.42
63907;BME280;50075;49.484;11.238;2022-08-04T06:29:10;97814.19;;;42.22;26.57
63907;BME280;50075;49.484;11.238;2022-08-04T06:31:46;97813.31;;;43.79;25.28
63907;BME280;50075;49.484;11.238;2022-08-04T06:34:22;97818.31;;;42.45;26.33
63907;BME280;50075;49.484;11.238;2022-08-04T06:36:48;97817.38;;;41.68;28.03
63907;BME280;50075;49.484;11.238;2022-08-04T06:39:14;97810.53;;;41.75;27.44
63907;BME280;50075;49.484;11.238;2022-08-04T06:41:40;97811.25;;;41.45;27.73
63907;BME280;50075;49.484;11.238;2022-08-04T06:44:08;97820.59;;;43.49;25.39
63907;BME280;50075;49.484;11.238;2022-08-04T06:46:37;97816.31;;;41.99;25.91
63907;BME280;50075;49.484;11.238;2022-08-04T06:49:04;97824.00;;;40.81;27.50
63907;BME280;50075;49.484;11.238;2022-08-04T06:51:30;97822.69;;;42.41;26.09
63907;BME280;50075;49.484;11.238;2022-08-04T06:53:57;97832.41;;;43.50;25.02
63907;BME280;50075;49.484;11.238;2022-08-04T06:56:23;97824.31;;;44.24;24.04
63907;BME280;50075;49.484;11.238;2022-08-04T06:58:51;97824.34;;;43.74;24.65
63907;BME280;50075;49.484;11.238;2022-08-04T07:01:20;97822.25;;;44.74;23.97
63907;BME280;50075;49.484;11.238;2022-08-04T07:03:47;97821.78;;;45.45;23.20
63907;BME280;50075;49.484;11.238;2022-08-04T07:06:13;97821.56;;;48.30;20.17
63907;BME280;50075;49.484;11.238;2022-08-04T07:08:39;97819.16;;;45.96;21.74
63907;BME280;50075;49.484;11.238;2022-08-04T07:11:05;97815.53;;;44.22;23.21
63907;BME280;50075;49.484;11.238;2022-08-04T07:13:32;97810.84;;;45.39;22.58
63907;BME280;50075;49.484;11.238;2022-08-04T07:15:59;97814.94;;;43.85;22.82
63907;BME280;50075;49.484;11.238;2022-08-04T07:18:25;97806.72;;;45.99;20.44
63907;BME280;50075;49.484;11.238;2022-08-04T07:20:51;97810.81;;;45.15;20.63
63907;BME280;50075;49.484;11.238;2022-08-04T07:23:22;97804.69;;;45.67;19.70
63907;BME280;50075;49.484;11.238;2022-08-04T07:25:53;97807.84;;;45.98;19.45
63907;BME280;50075;49.484;11.238;2022-08-04T07:28:20;97801.88;;;48.46;17.64
63907;BME280;50075;49.484;11.238;2022-08-04T07:30:46;97805.41;;;42.82;22.07
63907;BME280;50075;49.484;11.238;2022-08-04T07:33:13;97805.97;;;42.27;22.85
63907;BME280;50075;49.484;11.238;2022-08-04T07:35:40;97799.97;;;44.02;21.50
63907;BME280;50075;49.484;11.238;2022-08-04T07:38:05;97799.09;;;44.80;21.17
63907;BME280;50075;49.484;11.238;2022-08-04T07:40:31;97804.72;;;44.36;20.26
63907;BME280;50075;49.484;11.238;2022-08-04T07:42:57;97799.06;;;45.96;19.55
63907;BME280;50075;49.484;11.238;2022-08-04T07:45:23;97803.13;;;47.66;18.57
63907;BME280;50075;49.484;11.238;2022-08-04T07:47:49;97801.53;;;45.54;20.05
63907;BME280;50075;49.484;11.238;2022-08-04T07:50:15;97801.25;;;44.83;20.07
63907;BME280;50075;49.484;11.238;2022-08-04T07:52:42;97797.47;;;48.22;18.40
63907;BME280;50075;49.484;11.238;2022-08-04T07:55:10;97793.75;;;44.65;20.59
63907;BME280;50075;49.484;11.238;2022-08-04T07:57:35;97789.50;;;47.34;18.85
63907;BME280;50075;49.484;11.238;2022-08-04T08:00:03;97793.25;;;44.87;20.38
63907;BME280;50075;49.484;11.238;2022-08-04T08:02:29;97797.97;;;47.37;18.31
63907;BME280;50075;49.484;11.238;2022-08-04T08:04:55;97800.22;;;46.93;18.58
63907;BME280;50075;49.484;11.238;2022-08-04T08:07:20;97793.00;;;43.15;21.54
63907;BME280;50075;49.484;11.238;2022-08-04T08:09:45;97782.06;;;41.13;22.77
63907;BME280;50075;49.484;11.238;2022-08-04T08:12:11;97784.78;;;45.08;20.26
63907;BME280;50075;49.484;11.238;2022-08-04T08:14:38;97790.31;;;45.51;19.89
63907;BME280;50075;49.484;11.238;2022-08-04T08:17:03;97789.94;;;44.85;19.90
63907;BME280;50075;49.484;11.238;2022-08-04T08:19:30;97790.78;;;43.82;21.50
63907;BME280;50075;49.484;11.238;2022-08-04T08:21:57;97782.06;;;43.75;21.31
63907;BME280;50075;49.484;11.238;2022-08-04T08:24:22;97784.81;;;46.27;19.53
63907;BME280;50075;49.484;11.238;2022-08-04T08:26:48;97779.75;;;45.58;19.49
63907;BME280;50075;49.484;11.238;2022-08-04T08:29:13;97781.41;;;45.11;19.12
63907;BME280;50075;49.484;11.238;2022-08-04T08:31:40;97780.97;;;47.44;17.81
63907;BME280;50075;49.484;11.238;2022-08-04T08:34:05;97777.34;;;47.57;18.02
63907;BME280;50075;49.484;11.238;2022-08-04T08:36:38;97777.75;;;46.53;18.43
63907;BME280;50075;49.484;11.238;2022-08-04T08:39:13;97771.53;;;45.10;19.61
63907;BME280;50075;49.484;11.238;2022-08-04T08:44:37;97759.97;;;45.94;18.66
63907;BME280;50075;49.484;11.238;2022-08-04T08:47:34;97765.41;;;47.20;17.60
63907;BME280;50075;49.484;11.238;2022-08-04T08:53:20;97762.88;;;46.82;18.16
63907;BME280;50075;49.484;11.238;2022-08-04T09:01:46;97762.44;;;46.47;18.29
63907;BME280;50075;49.484;11.238;2022-08-04T09:13:04;97760.56;;;45.91;19.04
63907;BME280;50075;49.484;11.238;2022-08-04T09:15:51;97762.00;;;45.64;19.21
63907;BME280;50075;49.484;11.238;2022-08-04T09:18:30;97756.47;;;46.07;18.95
63907;BME280;50075;49.484;11.238;2022-08-04T09:21:15;97755.13;;;45.48;19.31
63907;BME280;50075;49.484;11.238;2022-08-04T09:23:54;97755.63;;;45.88;18.92
63907;BME280;50075;49.484;11.238;2022-08-04T09:26:29;97745.91;;;44.85;20.00
63907;BME280;50075;49.484;11.238;2022-08-04T09:32:06;97760.91;;;46.55;18.75
63907;BME280;50075;49.484;11.238;2022-08-04T09:34:41;97759.91;;;44.01;19.93
63907;BME280;50075;49.484;11.238;2022-08-04T09:37:11;97754.00;;;45.25;19.54
63907;BME280;50075;49.484;11.238;2022-08-04T09:52:27;97756.88;;;45.38;19.23
63907;BME280;50075;49.484;11.238;2022-08-04T09:55:22;97752.75;;;44.34;19.80
63907;BME280;50075;49.484;11.238;2022-08-04T10:00:58;97744.34;;;44.50;19.30
63907;BME280;50075;49.484;11.238;2022-08-04T10:03:26;97743.53;;;45.27;19.85
63907;BME280;50075;49.484;11.238;2022-08-04T10:06:14;97743.19;;;45.33;19.07
63907;BME280;50075;49.484;11.238;2022-08-04T10:09:07;97739.25;;;43.64;20.27
63907;BME280;50075;49.484;11.238;2022-08-04T10:19:26;97731.22;;;43.18;20.99
63907;BME280;50075;49.484;11.238;2022-08-04T10:22:14;97726.69;;;45.09;19.13
63907;BME280;50075;49.484;11.238;2022-08-04T10:27:48;97727.44;;;44.67;19.08
63907;BME280;50075;49.484;11.238;2022-08-04T10:30:16;97726.09;;;43.61;20.42
63907;BME280;50075;49.484;11.238;2022-08-04T10:35:34;97724.31;;;43.36;19.61
63907;BME280;50075;49.484;11.238;2022-08-04T10:38:09;97720.09;;;43.54;19.53
63907;BME280;50075;49.484;11.238;2022-08-04T10:40:54;97718.38;;;44.37;19.13
63907;BME280;50075;49.484;11.238;2022-08-04T10:48:56;97708.59;;;44.55;18.58
63907;BME280;50075;49.484;11.238;2022-08-04T10:52:02;97707.00;;;44.19;19.05
63907;BME280;50075;49.484;11.238;2022-08-04T10:59:55;97686.91;;;44.48;19.42
63907;BME280;50075;49.484;11.238;2022-08-04T11:02:42;97687.78;;;44.73;18.97
63907;BME280;50075;49.484;11.238;2022-08-04T11:08:00;97685.41;;;44.85;18.67
63907;BME280;50075;49.484;11.238;2022-08-04T11:10:32;97679.31;;;44.88;18.76
63907;BME280;50075;49.484;11.238;2022-08-04T11:13:05;97685.13;;;42.34;20.04
63907;BME280;50075;49.484;11.238;2022-08-04T11:15:37;97685.25;;;43.49;19.62
63907;BME280;50075;49.484;11.238;2022-08-04T11:18:22;97685.06;;;42.44;20.01
63907;BME280;50075;49.484;11.238;2022-08-04T11:20:55;97680.41;;;42.55;20.06
63907;BME280;50075;49.484;11.238;2022-08-04T11:23:28;97683.75;;;44.36;19.11
63907;BME280;50075;49.484;11.238;2022-08-04T11:26:20;97690.25;;;42.71;20.28
63907;BME280;50075;49.484;11.238;2022-08-04T11:29:04;97683.78;;;44.01;19.12
63907;BME280;50075;49.484;11.238;2022-08-04T11:31:38;97676.41;;;43.12;19.70
63907;BME280;50075;49.484;11.238;2022-08-04T11:39:16;97684.03;;;42.20;19.74
63907;BME280;50075;49.484;11.238;2022-08-04T11:45:18;97682.81;;;40.65;20.90
63907;BME280;50075;49.484;11.238;2022-08-04T11:47:50;97666.25;;;41.71;20.33
63907;BME280;50075;49.484;11.238;2022-08-04T11:52:58;97669.25;;;41.69;20.43
63907;BME280;50075;49.484;11.238;2022-08-04T11:55:26;97671.94;;;41.44;20.67
63907;BME280;50075;49.484;11.238;2022-08-04T11:57:53;97666.81;;;40.36;21.31
63907;BME280;50075;49.484;11.238;2022-08-04T12:00:20;97672.81;;;40.38;21.23
63907;BME280;50075;49.484;11.238;2022-08-04T12:05:32;97659.28;;;39.51;21.96
63907;BME280;50075;49.484;11.238;2022-08-04T12:11:00;97651.16;;;40.74;21.93
63907;BME280;50075;49.484;11.238;2022-08-04T12:16:00;97648.84;;;40.51;22.35
63907;BME280;50075;49.484;11.238;2022-08-04T12:18:39;97663.38;;;41.19;21.66
63907;BME280;50075;49.484;11.238;2022-08-04T12:21:28;97648.25;;;40.43;21.85
63907;BME280;50075;49.484;11.238;2022-08-04T12:23:59;97645.28;;;41.03;21.25
63907;BME280;50075;49.484;11.238;2022-08-04T12:26:36;97646.69;;;40.58;21.48
63907;BME280;50075;49.484;11.238;2022-08-04T12:29:04;97640.19;;;40.69;20.81
63907;BME280;50075;49.484;11.238;2022-08-04T12:31:46;97641.53;;;40.19;21.33
63907;BME280;50075;49.484;11.238;2022-08-04T12:34:33;97633.91;;;40.21;21.36
63907;BME280;50075;49.484;11.238;2022-08-04T12:39:52;97627.09;;;39.54;22.26
63907;BME280;50075;49.484;11.238;2022-08-04T12:42:26;97633.69;;;40.27;21.76
63907;BME280;50075;49.484;11.238;2022-08-04T12:44:54;97632.63;;;39.91;21.99
63907;BME280;50075;49.484;11.238;2022-08-04T12:47:24;97626.75;;;40.09;22.02
63907;BME280;50075;49.484;11.238;2022-08-04T12:49:51;97638.47;;;39.18;22.79
63907;BME280;50075;49.484;11.238;2022-08-04T12:52:18;97621.78;;;39.69;22.35
63907;BME280;50075;49.484;11.238;2022-08-04T12:54:45;97615.91;;;40.25;22.16
63907;BME280;50075;49.484;11.238;2022-08-04T12:57:13;97618.09;;;40.28;22.02
63907;BME280;50075;49.484;11.238;2022-08-04T12:59:45;97611.59;;;39.59;22.07
63907;BME280;50075;49.484;11.238;2022-08-04T13:02:29;97607.19;;;40.28;21.73
63907;BME280;50075;49.484;11.238;2022-08-04T13:04:59;97603.81;;;40.16;22.13
63907;BME280;50075;49.484;11.238;2022-08-04T13:07:27;97608.19;;;39.74;21.61
63907;BME280;50075;49.484;11.238;2022-08-04T13:10:01;97596.31;;;40.38;21.23
63907;BME280;50075;49.484;11.238;2022-08-04T13:12:31;97601.34;;;40.62;20.96
63907;BME280;50075;49.484;11.238;2022-08-04T13:15:07;97592.84;;;40.05;21.33
63907;BME280;50075;49.484;11.238;2022-08-04T13:17:46;97593.22;;;39.82;21.68
63907;BME280;50075;49.484;11.238;2022-08-04T13:20:13;97598.03;;;40.50;21.22
63907;BME280;50075;49.484;11.238;2022-08-04T13:22:39;97588.59;;;40.30;21.30
63907;BME280;50075;49.484;11.238;2022-08-04T13:25:06;97592.91;;;39.78;21.63
63907;BME280;50075;49.484;11.238;2022-08-04T13:27:32;97586.69;;;39.50;21.81
63907;BME280;50075;49.484;11.238;2022-08-04T13:29:58;97580.75;;;39.59;21.64
63907;BME280;50075;49.484;11.238;2022-08-04T13:32:24;97582.03;;;40.26;21.46
63907;BME280;50075;49.484;11.238;2022-08-04T13:34:53;97574.84;;;39.40;21.97
63907;BME280;50075;49.484;11.238;2022-08-04T13:37:23;97577.50;;;39.62;21.52
63907;BME280;50075;49.484;11.238;2022-08-04T13:39:50;97573.66;;;39.95;21.35
63907;BME280;50075;49.484;11.238;2022-08-04T13:42:17;97576.91;;;39.92;21.36
63907;BME280;50075;49.484;11.238;2022-08-04T13:44:47;97571.78;;;39.04;21.92
63907;BME280;50075;49.484;11.238;2022-08-04T13:47:19;97568.75;;;39.97;21.37
63907;BME280;50075;49.484;11.238;2022-08-04T13:50:06;97569.44;;;40.15;21.38
63907;BME280;50075;49.484;11.238;2022-08-04T13:52:32;97571.41;;;39.87;21.53
63907;BME280;50075;49.484;11.238;2022-08-04T13:54:58;97564.38;;;39.91;21.75
63907;BME280;50075;49.484;11.238;2022-08-04T13:57:30;97566.44;;;39.79;21.53
63907;BME280;50075;49.484;11.238;2022-08-04T14:00:05;97567.09;;;39.91;21.35
63907;BME280;50075;49.484;11.238;2022-08-04T14:02:57;97559.31;;;39.13;22.03
63907;BME280;50075;49.484;11.238;2022-08-04T14:05:25;97558.84;;;39.86;21.72
63907;BME280;50075;49.484;11.238;2022-08-04T14:08:19;97555.53;;;40.84;21.58
63907;BME280;50075;49.484;11.238;2022-08-04T14:10:55;97548.00;;;39.26;22.37
63907;BME280;50075;49.484;11.238;2022-08-04T14:13:28;97547.75;;;39.60;21.91
63907;BME280;50075;49.484;11.238;2022-08-04T14:15:55;97545.69;;;40.83;20.89
63907;BME280;50075;49.484;11.238;2022-08-04T14:18:26;97540.06;;;40.47;21.50
63907;BME280;50075;49.484;11.238;2022-08-04T14:23:27;97541.69;;;40.43;21.16
63907;BME280;50075;49.484;11.238;2022-08-04T14:25:53;97539.97;;;40.27;21.11
63907;BME280;50075;49.484;11.238;2022-08-04T14:28:29;97538.03;;;40.22;21.16
63907;BME280;50075;49.484;11.238;2022-08-04T14:31:09;97535.16;;;39.59;21.52
63907;BME280;50075;49.484;11.238;2022-08-04T14:33:37;97537.09;;;39.96;21.43
63907;BME280;50075;49.484;11.238;2022-08-04T14:36:02;97541.28;;;40.19;21.21
63907;BME280;50075;49.484;11.238;2022-08-04T14:41:14;97526.47;;;39.62;21.93
63907;BME280;50075;49.484;11.238;2022-08-04T14:43:48;97535.03;;;39.76;21.65
63907;BME280;50075;49.484;11.238;2022-08-04T14:46:16;97530.63;;;39.05;22.01
63907;BME280;50075;49.484;11.238;2022-08-04T14:49:08;97529.94;;;39.90;21.44
63907;BME280;50075;49.484;11.238;2022-08-04T14:51:34;97527.63;;;40.19;21.29
63907;BME280;50075;49.484;11.238;2022-08-04T14:53:59;97531.88;;;40.42;21.19
63907;BME280;50075;49.484;11.238;2022-08-04T14:56:25;97526.41;;;40.42;20.86
63907;BME280;50075;49.484;11.238;2022-08-04T14:58:59;97526.56;;;40.94;21.01
63907;BME280;50075;49.484;11.238;2022-08-04T15:01:25;97519.63;;;39.97;20.97
63907;BME280;50075;49.484;11.238;2022-08-04T15:03:52;97519.38;;;40.04;21.03
63907;BME280;50075;49.484;11.238;2022-08-04T15:06:21;97514.63;;;39.89;21.42
63907;BME280;50075;49.484;11.238;2022-08-04T15:08:47;97516.66;;;39.61;21.53
63907;BME280;50075;49.484;11.238;2022-08-04T15:11:13;97516.91;;;40.02;21.36
63907;BME280;50075;49.484;11.238;2022-08-04T15:13:39;97519.47;;;39.77;22.23
63907;BME280;50075;49.484;11.238;2022-08-04T15:16:04;97522.34;;;40.50;21.84
63907;BME280;50075;49.484;11.238;2022-08-04T15:18:30;97520.88;;;40.32;21.03
63907;BME280;50075;49.484;11.238;2022-08-04T15:20:56;97516.53;;;39.88;21.09
63907;BME280;50075;49.484;11.238;2022-08-04T15:23:23;97515.63;;;40.94;21.03
63907;BME280;50075;49.484;11.238;2022-08-04T15:25:52;97518.09;;;40.17;22.10
63907;BME280;50075;49.484;11.238;2022-08-04T15:28:20;97523.19;;;40.71;21.51
63907;BME280;50075;49.484;11.238;2022-08-04T15:30:49;97514.16;;;40.65;21.37
63907;BME280;50075;49.484;11.238;2022-08-04T15:33:16;97518.06;;;40.85;21.38
63907;BME280;50075;49.484;11.238;2022-08-04T15:35:54;97513.28;;;40.44;21.44
63907;BME280;50075;49.484;11.238;2022-08-04T15:38:33;97515.63;;;39.73;21.69
63907;BME280;50075;49.484;11.238;2022-08-04T15:41:08;97500.25;;;39.99;21.33
63907;BME280;50075;49.484;11.238;2022-08-04T15:46:09;97494.13;;;40.34;21.12
63907;BME280;50075;49.484;11.238;2022-08-04T15:48:35;97490.75;;;40.12;21.53
63907;BME280;50075;49.484;11.238;2022-08-04T15:51:05;97495.97;;;39.76;21.36
63907;BME280;50075;49.484;11.238;2022-08-04T15:58:51;97488.56;;;39.28;22.35
63907;BME280;50075;49.484;11.238;2022-08-04T16:01:19;97494.28;;;39.64;22.52
63907;BME280;50075;49.484;11.238;2022-08-04T16:03:47;97495.16;;;40.23;21.45
63907;BME280;50075;49.484;11.238;2022-08-04T16:21:55;97487.50;;;39.67;22.19
63907;BME280;50075;49.484;11.238;2022-08-04T16:24:27;97492.28;;;39.17;22.72
63907;BME280;50075;49.484;11.238;2022-08-04T16:26:57;97491.56;;;38.50;22.96
63907;BME280;50075;49.484;11.238;2022-08-04T16:37:08;97491.28;;;39.33;22.10
63907;BME280;50075;49.484;11.238;2022-08-04T16:39:34;97489.31;;;38.42;23.52
63907;BME280;50075;49.484;11.238;2022-08-04T16:45:09;97478.44;;;38.97;22.72
63907;BME280;50075;49.484;11.238;2022-08-04T16:50:19;97481.06;;;38.86;23.00
63907;BME280;50075;49.484;11.238;2022-08-04T16:52:48;97477.59;;;39.23;22.77
63907;BME280;50075;49.484;11.238;2022-08-04T16:55:17;97474.63;;;38.98;23.04
63907;BME280;50075;49.484;11.238;2022-08-04T16:57:46;97471.72;;;38.77;22.80
63907;BME280;50075;49.484;11.238;2022-08-04T17:00:12;97473.59;;;38.49;23.28
63907;BME280;50075;49.484;11.238;2022-08-04T17:02:38;97467.44;;;38.59;23.07
63907;BME280;50075;49.484;11.238;2022-08-04T17:05:05;97466.19;;;38.45;23.25
63907;BME280;50075;49.484;11.238;2022-08-04T17:07:50;97463.81;;;38.53;22.92
63907;BME280;50075;49.484;11.238;2022-08-04T17:10:16;97464.56;;;38.22;23.32
63907;BME280;50075;49.484;11.238;2022-08-04T17:12:43;97470.03;;;38.49;23.25
63907;BME280;50075;49.484;11.238;2022-08-04T17:15:24;97470.31;;;38.03;23.62
63907;BME280;50075;49.484;11.238;2022-08-04T17:17:50;97463.94;;;38.64;22.94
63907;BME280;50075;49.484;11.238;2022-08-04T17:20:16;97459.47;;;38.30;23.09
63907;BME280;50075;49.484;11.238;2022-08-04T17:22:49;97457.50;;;37.82;23.88
63907;BME280;50075;49.484;11.238;2022-08-04T17:25:15;97459.56;;;38.13;23.49
63907;BME280;50075;49.484;11.238;2022-08-04T17:27:41;97455.59;;;38.04;23.59
63907;BME280;50075;49.484;11.238;2022-08-04T17:30:24;97446.66;;;38.26;23.70
63907;BME280;50075;49.484;11.238;2022-08-04T17:32:50;97451.78;;;38.22;23.43